sensor_id;sensor_type;location;lat;lon;timestamp;P1;durP1;ratioP1;P2;durP2;ratioP2
19758;SDS011;10038;42.662;23.278;2023-01-16T00:00:11;49.00;;;22.63;;
19758;SDS011;10038;42.662;23.278;2023-01-16T00:02:37;49.33;;;24.50;;
19758;SDS011;10038;42.662;23.278;2023-01-16T00:05:06;51.40;;;24.17;;
19758;SDS011;10038;42.662;23.278;2023-01-16T00:07:32;44.25;;;21.25;;
19758;SDS011;10038;42.662;23.278;2023-01-16T00:09:59;45.67;;;21.60;;
19758;SDS011;10038;42.662;23.278;2023-01-16T00:12:25;49.15;;;22.02;;
19758;SDS011;10038;42.662;23.278;2023-01-16T00:14:51;42.70;;;20.75;;
19758;SDS011;10038;42.662;23.278;2023-01-16T00:17:18;45.72;;;21.05;;
19758;SDS011;10038;42.662;23.278;2023-01-16T00:19:44;54.25;;;24.95;;
19758;SDS011;10038;42.662;23.278;2023-01-16T00:22:12;46.25;;;22.35;;
19758;SDS011;10038;42.662;23.278;2023-01-16T00:24:39;48.42;;;21.95;;
19758;SDS011;10038;42.662;23.278;2023-01-16T00:27:05;49.88;;;23.83;;
19758;SDS011;10038;42.662;23.278;2023-01-16T00:29:32;47.05;;;21.77;;
19758;SDS011;10038;42.662;23.278;2023-01-16T00:31:58;42.28;;;19.17;;
19758;SDS011;10038;42.662;23.278;2023-01-16T00:34:24;34.80;;;17.88;;
19758;SDS011;10038;42.662;23.278;2023-01-16T00:36:51;42.53;;;18.17;;
19758;SDS011;10038;42.662;23.278;2023-01-16T00:39:19;37.65;;;18.42;;
19758;SDS011;10038;42.662;23.278;2023-01-16T00:41:45;39.88;;;19.48;;
19758;SDS011;10038;42.662;23.278;2023-01-16T00:44:12;39.70;;;21.63;;
19758;SDS011;10038;42.662;23.278;2023-01-16T00:46:38;37.80;;;20.05;;
19758;SDS011;10038;42.662;23.278;2023-01-16T00:49:05;43.83;;;22.90;;
19758;SDS011;10038;42.662;23.278;2023-01-16T00:51:31;47.88;;;19.65;;
19758;SDS011;10038;42.662;23.278;2023-01-16T00:53:58;48.05;;;20.38;;
19758;SDS011;10038;42.662;23.278;2023-01-16T00:56:26;42.22;;;19.60;;
19758;SDS011;10038;42.662;23.278;2023-01-16T00:58:52;74.03;;;28.02;;
19758;SDS011;10038;42.662;23.278;2023-01-16T01:01:19;63.75;;;26.73;;
19758;SDS011;10038;42.662;23.278;2023-01-16T01:03:46;60.25;;;27.13;;
19758;SDS011;10038;42.662;23.278;2023-01-16T01:06:12;61.75;;;27.98;;
19758;SDS011;10038;42.662;23.278;2023-01-16T01:08:38;40.85;;;18.67;;
19758;SDS011;10038;42.662;23.278;2023-01-16T01:11:05;52.90;;;21.30;;
19758;SDS011;10038;42.662;23.278;2023-01-16T01:13:33;39.85;;;21.48;;
19758;SDS011;10038;42.662;23.278;2023-01-16T01:16:00;41.53;;;19.63;;
19758;SDS011;10038;42.662;23.278;2023-01-16T01:18:26;36.10;;;18.27;;
19758;SDS011;10038;42.662;23.278;2023-01-16T01:20:53;38.75;;;19.45;;
19758;SDS011;10038;42.662;23.278;2023-01-16T01:23:19;43.65;;;18.40;;
19758;SDS011;10038;42.662;23.278;2023-01-16T01:25:46;32.00;;;18.95;;
19758;SDS011;10038;42.662;23.278;2023-01-16T01:28:12;40.42;;;18.48;;
19758;SDS011;10038;42.662;23.278;2023-01-16T01:30:40;35.25;;;17.02;;
19758;SDS011;10038;42.662;23.278;2023-01-16T01:33:07;31.35;;;18.13;;
19758;SDS011;10038;42.662;23.278;2023-01-16T01:35:34;27.98;;;14.52;;
19758;SDS011;10038;42.662;23.278;2023-01-16T01:38:01;33.88;;;15.80;;
19758;SDS011;10038;42.662;23.278;2023-01-16T01:40:27;29.67;;;14.57;;
19758;SDS011;10038;42.662;23.278;2023-01-16T01:42:54;30.70;;;14.15;;
19758;SDS011;10038;42.662;23.278;2023-01-16T01:45:21;41.40;;;14.32;;
19758;SDS011;10038;42.662;23.278;2023-01-16T01:47:51;34.92;;;17.05;;
19758;SDS011;10038;42.662;23.278;2023-01-16T01:50:22;57.13;;;14.65;;
19758;SDS011;10038;42.662;23.278;2023-01-16T01:52:50;40.25;;;15.40;;
19758;SDS011;10038;42.662;23.278;2023-01-16T01:55:17;52.22;;;15.07;;
19758;SDS011;10038;42.662;23.278;2023-01-16T01:57:45;39.72;;;16.23;;
19758;SDS011;10038;42.662;23.278;2023-01-16T02:00:14;35.90;;;14.60;;
19758;SDS011;10038;42.662;23.278;2023-01-16T02:02:42;36.25;;;13.52;;
19758;SDS011;10038;42.662;23.278;2023-01-16T02:05:12;32.65;;;14.45;;
19758;SDS011;10038;42.662;23.278;2023-01-16T02:07:40;29.33;;;14.07;;
19758;SDS011;10038;42.662;23.278;2023-01-16T02:10:10;40.75;;;15.30;;
19758;SDS011;10038;42.662;23.278;2023-01-16T02:12:38;59.17;;;19.27;;
19758;SDS011;10038;42.662;23.278;2023-01-16T02:15:05;55.53;;;16.88;;
19758;SDS011;10038;42.662;23.278;2023-01-16T02:17:32;37.97;;;14.18;;
19758;SDS011;10038;42.662;23.278;2023-01-16T02:20:19;35.22;;;14.00;;
19758;SDS011;10038;42.662;23.278;2023-01-16T02:28:25;29.17;;;13.40;;
19758;SDS011;10038;42.662;23.278;2023-01-16T02:31:17;43.70;;;15.15;;
19758;SDS011;10038;42.662;23.278;2023-01-16T02:33:52;30.92;;;11.95;;
19758;SDS011;10038;42.662;23.278;2023-01-16T02:36:21;32.05;;;12.70;;
19758;SDS011;10038;42.662;23.278;2023-01-16T02:38:50;35.65;;;13.77;;
19758;SDS011;10038;42.662;23.278;2023-01-16T02:41:21;34.17;;;14.77;;
19758;SDS011;10038;42.662;23.278;2023-01-16T02:43:52;27.70;;;13.55;;
19758;SDS011;10038;42.662;23.278;2023-01-16T02:46:24;38.88;;;14.88;;
19758;SDS011;10038;42.662;23.278;2023-01-16T02:48:53;33.47;;;13.65;;
19758;SDS011;10038;42.662;23.278;2023-01-16T02:51:23;29.98;;;13.98;;
19758;SDS011;10038;42.662;23.278;2023-01-16T02:53:56;31.52;;;14.73;;
19758;SDS011;10038;42.662;23.278;2023-01-16T02:56:26;41.08;;;15.88;;
19758;SDS011;10038;42.662;23.278;2023-01-16T02:58:53;34.13;;;13.45;;
19758;SDS011;10038;42.662;23.278;2023-01-16T03:01:20;43.00;;;15.52;;
19758;SDS011;10038;42.662;23.278;2023-01-16T03:03:49;38.28;;;14.70;;
19758;SDS011;10038;42.662;23.278;2023-01-16T03:06:26;36.50;;;17.10;;
19758;SDS011;10038;42.662;23.278;2023-01-16T03:08:56;36.45;;;16.60;;
19758;SDS011;10038;42.662;23.278;2023-01-16T03:11:28;37.83;;;16.85;;
19758;SDS011;10038;42.662;23.278;2023-01-16T03:13:58;41.63;;;15.90;;
19758;SDS011;10038;42.662;23.278;2023-01-16T03:16:28;33.47;;;13.90;;
19758;SDS011;10038;42.662;23.278;2023-01-16T03:19:01;38.17;;;15.70;;
19758;SDS011;10038;42.662;23.278;2023-01-16T03:21:30;45.50;;;17.67;;
19758;SDS011;10038;42.662;23.278;2023-01-16T03:24:03;48.78;;;16.13;;
19758;SDS011;10038;42.662;23.278;2023-01-16T03:26:33;32.38;;;15.15;;
19758;SDS011;10038;42.662;23.278;2023-01-16T03:29:04;48.20;;;18.10;;
19758;SDS011;10038;42.662;23.278;2023-01-16T03:31:34;40.85;;;16.58;;
19758;SDS011;10038;42.662;23.278;2023-01-16T03:34:07;39.55;;;15.70;;
19758;SDS011;10038;42.662;23.278;2023-01-16T03:36:38;42.83;;;16.05;;
19758;SDS011;10038;42.662;23.278;2023-01-16T03:39:07;34.63;;;13.82;;
19758;SDS011;10038;42.662;23.278;2023-01-16T03:41:34;41.85;;;15.30;;
19758;SDS011;10038;42.662;23.278;2023-01-16T03:44:03;32.95;;;15.40;;
19758;SDS011;10038;42.662;23.278;2023-01-16T03:46:32;38.75;;;15.05;;
19758;SDS011;10038;42.662;23.278;2023-01-16T03:49:02;42.53;;;13.68;;
19758;SDS011;10038;42.662;23.278;2023-01-16T03:51:33;40.33;;;16.73;;
19758;SDS011;10038;42.662;23.278;2023-01-16T03:54:01;44.17;;;15.88;;
19758;SDS011;10038;42.662;23.278;2023-01-16T03:56:29;47.92;;;16.55;;
19758;SDS011;10038;42.662;23.278;2023-01-16T03:58:58;34.72;;;15.18;;
19758;SDS011;10038;42.662;23.278;2023-01-16T04:01:26;58.95;;;16.95;;
19758;SDS011;10038;42.662;23.278;2023-01-16T04:03:55;53.50;;;17.42;;
19758;SDS011;10038;42.662;23.278;2023-01-16T04:06:24;51.53;;;17.08;;
19758;SDS011;10038;42.662;23.278;2023-01-16T04:08:53;41.13;;;16.60;;
19758;SDS011;10038;42.662;23.278;2023-01-16T04:11:21;42.35;;;16.23;;
19758;SDS011;10038;42.662;23.278;2023-01-16T04:13:50;51.25;;;15.38;;
19758;SDS011;10038;42.662;23.278;2023-01-16T04:16:18;49.17;;;16.60;;
19758;SDS011;10038;42.662;23.278;2023-01-16T04:18:46;37.50;;;15.63;;
19758;SDS011;10038;42.662;23.278;2023-01-16T04:21:13;47.22;;;19.35;;
19758;SDS011;10038;42.662;23.278;2023-01-16T04:23:39;33.95;;;17.50;;
19758;SDS011;10038;42.662;23.278;2023-01-16T04:26:08;34.03;;;14.38;;
19758;SDS011;10038;42.662;23.278;2023-01-16T04:28:34;45.67;;;16.42;;
19758;SDS011;10038;42.662;23.278;2023-01-16T04:31:00;46.70;;;17.70;;
19758;SDS011;10038;42.662;23.278;2023-01-16T04:33:27;48.08;;;17.17;;
19758;SDS011;10038;42.662;23.278;2023-01-16T04:35:53;56.28;;;19.52;;
19758;SDS011;10038;42.662;23.278;2023-01-16T04:38:20;41.97;;;16.10;;
19758;SDS011;10038;42.662;23.278;2023-01-16T04:40:47;59.53;;;16.48;;
19758;SDS011;10038;42.662;23.278;2023-01-16T04:43:15;47.65;;;15.90;;
19758;SDS011;10038;42.662;23.278;2023-01-16T04:45:42;44.13;;;15.43;;
19758;SDS011;10038;42.662;23.278;2023-01-16T04:48:08;42.22;;;15.57;;
19758;SDS011;10038;42.662;23.278;2023-01-16T04:50:35;41.08;;;15.90;;
19758;SDS011;10038;42.662;23.278;2023-01-16T04:53:01;45.85;;;15.55;;
19758;SDS011;10038;42.662;23.278;2023-01-16T04:55:27;51.30;;;16.67;;
19758;SDS011;10038;42.662;23.278;2023-01-16T04:57:54;54.78;;;17.77;;
19758;SDS011;10038;42.662;23.278;2023-01-16T05:00:22;46.92;;;16.88;;
19758;SDS011;10038;42.662;23.278;2023-01-16T05:02:49;37.85;;;15.00;;
19758;SDS011;10038;42.662;23.278;2023-01-16T05:05:15;33.78;;;15.65;;
19758;SDS011;10038;42.662;23.278;2023-01-16T05:07:42;49.83;;;18.25;;
19758;SDS011;10038;42.662;23.278;2023-01-16T05:10:09;54.15;;;15.85;;
19758;SDS011;10038;42.662;23.278;2023-01-16T05:12:35;39.58;;;15.35;;
19758;SDS011;10038;42.662;23.278;2023-01-16T05:15:02;38.30;;;18.02;;
19758;SDS011;10038;42.662;23.278;2023-01-16T05:17:30;40.88;;;15.68;;
19758;SDS011;10038;42.662;23.278;2023-01-16T05:19:56;45.72;;;17.27;;
19758;SDS011;10038;42.662;23.278;2023-01-16T05:22:22;49.80;;;17.13;;
19758;SDS011;10038;42.662;23.278;2023-01-16T05:24:49;42.70;;;18.42;;
19758;SDS011;10038;42.662;23.278;2023-01-16T05:27:15;47.92;;;18.67;;
19758;SDS011;10038;42.662;23.278;2023-01-16T05:29:43;54.15;;;17.98;;
19758;SDS011;10038;42.662;23.278;2023-01-16T05:32:10;38.40;;;19.05;;
19758;SDS011;10038;42.662;23.278;2023-01-16T05:34:37;43.80;;;19.63;;
19758;SDS011;10038;42.662;23.278;2023-01-16T05:37:04;41.72;;;18.55;;
19758;SDS011;10038;42.662;23.278;2023-01-16T05:39:30;43.88;;;18.40;;
19758;SDS011;10038;42.662;23.278;2023-01-16T05:41:57;46.40;;;19.70;;
19758;SDS011;10038;42.662;23.278;2023-01-16T05:44:23;33.97;;;17.20;;
19758;SDS011;10038;42.662;23.278;2023-01-16T05:46:50;42.83;;;17.20;;
19758;SDS011;10038;42.662;23.278;2023-01-16T05:49:16;41.58;;;16.48;;
19758;SDS011;10038;42.662;23.278;2023-01-16T05:51:44;42.65;;;19.40;;
19758;SDS011;10038;42.662;23.278;2023-01-16T05:54:11;46.67;;;20.63;;
19758;SDS011;10038;42.662;23.278;2023-01-16T05:56:38;50.88;;;19.73;;
19758;SDS011;10038;42.662;23.278;2023-01-16T05:59:04;46.15;;;19.52;;
19758;SDS011;10038;42.662;23.278;2023-01-16T06:01:30;44.92;;;18.90;;
19758;SDS011;10038;42.662;23.278;2023-01-16T06:03:57;40.40;;;19.63;;
19758;SDS011;10038;42.662;23.278;2023-01-16T06:06:23;51.08;;;18.23;;
19758;SDS011;10038;42.662;23.278;2023-01-16T06:08:51;33.65;;;18.20;;
19758;SDS011;10038;42.662;23.278;2023-01-16T06:11:18;36.90;;;18.40;;
19758;SDS011;10038;42.662;23.278;2023-01-16T06:13:45;39.40;;;18.30;;
19758;SDS011;10038;42.662;23.278;2023-01-16T06:16:11;44.03;;;17.50;;
19758;SDS011;10038;42.662;23.278;2023-01-16T06:18:38;43.28;;;19.63;;
19758;SDS011;10038;42.662;23.278;2023-01-16T06:21:04;39.40;;;19.35;;
19758;SDS011;10038;42.662;23.278;2023-01-16T06:23:31;44.10;;;19.10;;
19758;SDS011;10038;42.662;23.278;2023-01-16T06:25:59;47.58;;;19.92;;
19758;SDS011;10038;42.662;23.278;2023-01-16T06:28:26;45.33;;;22.73;;
19758;SDS011;10038;42.662;23.278;2023-01-16T06:30:52;49.15;;;25.10;;
19758;SDS011;10038;42.662;23.278;2023-01-16T06:33:19;48.90;;;25.10;;
19758;SDS011;10038;42.662;23.278;2023-01-16T06:35:45;55.65;;;21.67;;
19758;SDS011;10038;42.662;23.278;2023-01-16T06:38:14;60.88;;;25.00;;
19758;SDS011;10038;42.662;23.278;2023-01-16T06:40:40;44.88;;;25.92;;
19758;SDS011;10038;42.662;23.278;2023-01-16T06:43:10;58.95;;;26.23;;
19758;SDS011;10038;42.662;23.278;2023-01-16T06:45:37;58.60;;;25.77;;
19758;SDS011;10038;42.662;23.278;2023-01-16T06:48:03;48.70;;;24.40;;
19758;SDS011;10038;42.662;23.278;2023-01-16T06:50:30;48.42;;;23.55;;
19758;SDS011;10038;42.662;23.278;2023-01-16T06:52:56;45.95;;;23.67;;
19758;SDS011;10038;42.662;23.278;2023-01-16T06:55:23;50.42;;;22.70;;
19758;SDS011;10038;42.662;23.278;2023-01-16T06:57:49;52.17;;;22.85;;
19758;SDS011;10038;42.662;23.278;2023-01-16T07:00:18;47.65;;;22.80;;
19758;SDS011;10038;42.662;23.278;2023-01-16T07:02:48;33.95;;;17.00;;
19758;SDS011;10038;42.662;23.278;2023-01-16T07:05:15;34.72;;;17.60;;
19758;SDS011;10038;42.662;23.278;2023-01-16T07:07:41;46.25;;;18.67;;
19758;SDS011;10038;42.662;23.278;2023-01-16T07:10:09;49.08;;;20.45;;
19758;SDS011;10038;42.662;23.278;2023-01-16T07:12:35;47.40;;;21.60;;
19758;SDS011;10038;42.662;23.278;2023-01-16T07:15:02;44.63;;;21.38;;
19758;SDS011;10038;42.662;23.278;2023-01-16T07:17:47;54.30;;;23.98;;
19758;SDS011;10038;42.662;23.278;2023-01-16T07:20:31;49.67;;;22.50;;
19758;SDS011;10038;42.662;23.278;2023-01-16T07:23:16;53.00;;;23.85;;
19758;SDS011;10038;42.662;23.278;2023-01-16T07:25:44;61.78;;;25.08;;
19758;SDS011;10038;42.662;23.278;2023-01-16T07:28:11;55.28;;;24.33;;
19758;SDS011;10038;42.662;23.278;2023-01-16T07:30:38;48.55;;;23.08;;
19758;SDS011;10038;42.662;23.278;2023-01-16T07:33:06;55.20;;;23.48;;
19758;SDS011;10038;42.662;23.278;2023-01-16T07:35:32;54.80;;;25.17;;
19758;SDS011;10038;42.662;23.278;2023-01-16T07:37:59;48.58;;;22.58;;
19758;SDS011;10038;42.662;23.278;2023-01-16T07:40:25;41.40;;;21.33;;
19758;SDS011;10038;42.662;23.278;2023-01-16T07:42:51;54.35;;;23.92;;
19758;SDS011;10038;42.662;23.278;2023-01-16T07:45:18;43.70;;;20.20;;
19758;SDS011;10038;42.662;23.278;2023-01-16T07:47:44;52.97;;;25.02;;
19758;SDS011;10038;42.662;23.278;2023-01-16T07:50:12;53.67;;;25.13;;
19758;SDS011;10038;42.662;23.278;2023-01-16T07:52:39;55.53;;;25.77;;
19758;SDS011;10038;42.662;23.278;2023-01-16T07:55:05;56.83;;;23.02;;
19758;SDS011;10038;42.662;23.278;2023-01-16T07:57:34;56.38;;;23.33;;
19758;SDS011;10038;42.662;23.278;2023-01-16T08:00:01;47.65;;;22.75;;
19758;SDS011;10038;42.662;23.278;2023-01-16T08:02:27;48.08;;;21.48;;
19758;SDS011;10038;42.662;23.278;2023-01-16T08:04:54;52.80;;;22.67;;
19758;SDS011;10038;42.662;23.278;2023-01-16T08:07:22;55.30;;;25.90;;
19758;SDS011;10038;42.662;23.278;2023-01-16T08:09:48;66.00;;;22.55;;
19758;SDS011;10038;42.662;23.278;2023-01-16T08:12:14;62.45;;;23.30;;
19758;SDS011;10038;42.662;23.278;2023-01-16T08:14:41;55.85;;;25.27;;
19758;SDS011;10038;42.662;23.278;2023-01-16T08:17:08;54.10;;;23.88;;
19758;SDS011;10038;42.662;23.278;2023-01-16T08:19:35;54.90;;;24.27;;
19758;SDS011;10038;42.662;23.278;2023-01-16T08:22:01;56.83;;;26.05;;
19758;SDS011;10038;42.662;23.278;2023-01-16T08:24:29;51.72;;;27.65;;
19758;SDS011;10038;42.662;23.278;2023-01-16T08:26:56;60.13;;;25.60;;
19758;SDS011;10038;42.662;23.278;2023-01-16T08:29:23;53.67;;;24.60;;
19758;SDS011;10038;42.662;23.278;2023-01-16T08:31:49;56.45;;;25.08;;
19758;SDS011;10038;42.662;23.278;2023-01-16T08:34:16;51.83;;;25.50;;
19758;SDS011;10038;42.662;23.278;2023-01-16T08:36:42;49.50;;;25.20;;
19758;SDS011;10038;42.662;23.278;2023-01-16T08:39:09;55.73;;;24.93;;
19758;SDS011;10038;42.662;23.278;2023-01-16T08:41:37;52.00;;;25.03;;
19758;SDS011;10038;42.662;23.278;2023-01-16T08:44:21;58.67;;;24.70;;
19758;SDS011;10038;42.662;23.278;2023-01-16T08:47:08;64.17;;;27.70;;
19758;SDS011;10038;42.662;23.278;2023-01-16T08:49:52;56.83;;;22.37;;
19758;SDS011;10038;42.662;23.278;2023-01-16T08:52:37;42.37;;;20.80;;
19758;SDS011;10038;42.662;23.278;2023-01-16T08:55:04;49.60;;;21.57;;
19758;SDS011;10038;42.662;23.278;2023-01-16T08:57:32;44.83;;;22.57;;
19758;SDS011;10038;42.662;23.278;2023-01-16T09:00:00;44.53;;;22.20;;
19758;SDS011;10038;42.662;23.278;2023-01-16T09:02:27;46.07;;;21.57;;
19758;SDS011;10038;42.662;23.278;2023-01-16T09:04:53;39.80;;;20.90;;
19758;SDS011;10038;42.662;23.278;2023-01-16T09:07:20;42.23;;;21.43;;
19758;SDS011;10038;42.662;23.278;2023-01-16T09:09:46;42.83;;;20.80;;
19758;SDS011;10038;42.662;23.278;2023-01-16T09:12:13;51.60;;;22.87;;
19758;SDS011;10038;42.662;23.278;2023-01-16T09:14:58;46.78;;;21.73;;
19758;SDS011;10038;42.662;23.278;2023-01-16T09:17:25;47.57;;;21.90;;
19758;SDS011;10038;42.662;23.278;2023-01-16T09:19:52;41.50;;;19.80;;
19758;SDS011;10038;42.662;23.278;2023-01-16T09:22:18;45.10;;;23.03;;
19758;SDS011;10038;42.662;23.278;2023-01-16T09:24:45;54.83;;;23.60;;
19758;SDS011;10038;42.662;23.278;2023-01-16T09:27:12;46.87;;;22.40;;
19758;SDS011;10038;42.662;23.278;2023-01-16T09:29:39;43.07;;;23.93;;
19758;SDS011;10038;42.662;23.278;2023-01-16T09:32:07;37.10;;;17.20;;
19758;SDS011;10038;42.662;23.278;2023-01-16T09:34:37;32.33;;;16.90;;
19758;SDS011;10038;42.662;23.278;2023-01-16T09:37:04;38.17;;;17.27;;
19758;SDS011;10038;42.662;23.278;2023-01-16T09:39:36;39.30;;;19.00;;
19758;SDS011;10038;42.662;23.278;2023-01-16T09:45:15;29.13;;;16.90;;
19758;SDS011;10038;42.662;23.278;2023-01-16T09:47:45;28.70;;;14.63;;
19758;SDS011;10038;42.662;23.278;2023-01-16T09:50:14;30.93;;;16.80;;
19758;SDS011;10038;42.662;23.278;2023-01-16T09:52:43;30.50;;;16.80;;
19758;SDS011;10038;42.662;23.278;2023-01-16T09:55:31;27.20;;;13.97;;
19758;SDS011;10038;42.662;23.278;2023-01-16T09:58:17;26.20;;;13.97;;
19758;SDS011;10038;42.662;23.278;2023-01-16T10:01:01;32.50;;;14.17;;
19758;SDS011;10038;42.662;23.278;2023-01-16T10:03:29;31.47;;;15.30;;
19758;SDS011;10038;42.662;23.278;2023-01-16T10:05:57;30.03;;;15.37;;
19758;SDS011;10038;42.662;23.278;2023-01-16T10:08:27;29.00;;;15.10;;
19758;SDS011;10038;42.662;23.278;2023-01-16T10:10:58;29.73;;;16.80;;
19758;SDS011;10038;42.662;23.278;2023-01-16T10:13:33;37.27;;;15.07;;
19758;SDS011;10038;42.662;23.278;2023-01-16T10:16:04;32.63;;;15.10;;
19758;SDS011;10038;42.662;23.278;2023-01-16T10:18:39;33.07;;;15.73;;
19758;SDS011;10038;42.662;23.278;2023-01-16T10:21:17;32.93;;;17.43;;
19758;SDS011;10038;42.662;23.278;2023-01-16T10:23:51;27.03;;;16.03;;
19758;SDS011;10038;42.662;23.278;2023-01-16T10:26:20;34.17;;;16.93;;
19758;SDS011;10038;42.662;23.278;2023-01-16T10:28:52;28.63;;;15.33;;
19758;SDS011;10038;42.662;23.278;2023-01-16T10:31:21;27.00;;;15.83;;
19758;SDS011;10038;42.662;23.278;2023-01-16T10:33:50;26.63;;;14.87;;
19758;SDS011;10038;42.662;23.278;2023-01-16T10:36:21;27.57;;;15.63;;
19758;SDS011;10038;42.662;23.278;2023-01-16T10:38:49;25.03;;;16.27;;
19758;SDS011;10038;42.662;23.278;2023-01-16T10:41:21;28.07;;;16.00;;
19758;SDS011;10038;42.662;23.278;2023-01-16T10:44:09;29.60;;;16.83;;
19758;SDS011;10038;42.662;23.278;2023-01-16T10:46:54;41.00;;;17.80;;
19758;SDS011;10038;42.662;23.278;2023-01-16T10:49:40;28.17;;;15.80;;
19758;SDS011;10038;42.662;23.278;2023-01-16T10:52:06;28.13;;;16.27;;
19758;SDS011;10038;42.662;23.278;2023-01-16T10:54:32;26.90;;;15.80;;
19758;SDS011;10038;42.662;23.278;2023-01-16T10:56:59;24.27;;;15.30;;
19758;SDS011;10038;42.662;23.278;2023-01-16T10:59:28;30.13;;;17.60;;
19758;SDS011;10038;42.662;23.278;2023-01-16T11:01:56;22.17;;;14.07;;
19758;SDS011;10038;42.662;23.278;2023-01-16T11:04:23;27.10;;;15.90;;
19758;SDS011;10038;42.662;23.278;2023-01-16T11:07:05;28.10;;;15.73;;
19758;SDS011;10038;42.662;23.278;2023-01-16T11:09:38;26.33;;;14.40;;
19758;SDS011;10038;42.662;23.278;2023-01-16T11:12:06;26.07;;;16.67;;
19758;SDS011;10038;42.662;23.278;2023-01-16T11:14:51;26.87;;;15.53;;
19758;SDS011;10038;42.662;23.278;2023-01-16T11:17:35;26.33;;;16.60;;
19758;SDS011;10038;42.662;23.278;2023-01-16T11:20:24;24.37;;;14.43;;
19758;SDS011;10038;42.662;23.278;2023-01-16T11:22:54;18.07;;;11.90;;
19758;SDS011;10038;42.662;23.278;2023-01-16T11:25:23;19.60;;;12.03;;
19758;SDS011;10038;42.662;23.278;2023-01-16T11:27:50;18.93;;;12.00;;
19758;SDS011;10038;42.662;23.278;2023-01-16T11:30:18;21.07;;;11.87;;
19758;SDS011;10038;42.662;23.278;2023-01-16T11:32:46;17.10;;;12.10;;
19758;SDS011;10038;42.662;23.278;2023-01-16T11:35:15;20.93;;;14.73;;
19758;SDS011;10038;42.662;23.278;2023-01-16T11:37:42;21.87;;;15.20;;
19758;SDS011;10038;42.662;23.278;2023-01-16T11:40:14;22.90;;;14.73;;
19758;SDS011;10038;42.662;23.278;2023-01-16T11:42:50;24.27;;;16.00;;
19758;SDS011;10038;42.662;23.278;2023-01-16T11:45:35;27.93;;;16.53;;
19758;SDS011;10038;42.662;23.278;2023-01-16T11:48:22;26.37;;;17.00;;
19758;SDS011;10038;42.662;23.278;2023-01-16T11:50:49;26.20;;;17.53;;
19758;SDS011;10038;42.662;23.278;2023-01-16T11:53:16;29.03;;;17.90;;
19758;SDS011;10038;42.662;23.278;2023-01-16T11:55:48;29.60;;;16.10;;
19758;SDS011;10038;42.662;23.278;2023-01-16T11:58:16;33.43;;;18.63;;
19758;SDS011;10038;42.662;23.278;2023-01-16T12:00:47;26.23;;;16.33;;
19758;SDS011;10038;42.662;23.278;2023-01-16T12:03:38;30.43;;;16.47;;
19758;SDS011;10038;42.662;23.278;2023-01-16T12:06:11;28.70;;;17.50;;
19758;SDS011;10038;42.662;23.278;2023-01-16T12:08:54;27.70;;;16.10;;
19758;SDS011;10038;42.662;23.278;2023-01-16T12:11:32;28.50;;;14.80;;
19758;SDS011;10038;42.662;23.278;2023-01-16T12:14:03;20.40;;;13.43;;
19758;SDS011;10038;42.662;23.278;2023-01-16T12:16:46;24.30;;;14.23;;
19758;SDS011;10038;42.662;23.278;2023-01-16T12:19:29;26.53;;;14.70;;
19758;SDS011;10038;42.662;23.278;2023-01-16T12:21:59;26.33;;;14.50;;
19758;SDS011;10038;42.662;23.278;2023-01-16T12:24:31;28.13;;;15.10;;
19758;SDS011;10038;42.662;23.278;2023-01-16T12:27:06;25.37;;;14.67;;
19758;SDS011;10038;42.662;23.278;2023-01-16T12:29:40;26.40;;;15.60;;
19758;SDS011;10038;42.662;23.278;2023-01-16T12:32:14;25.23;;;13.63;;
19758;SDS011;10038;42.662;23.278;2023-01-16T12:34:48;31.90;;;14.93;;
19758;SDS011;10038;42.662;23.278;2023-01-16T12:37:22;30.03;;;16.83;;
19758;SDS011;10038;42.662;23.278;2023-01-16T12:39:54;31.50;;;16.10;;
19758;SDS011;10038;42.662;23.278;2023-01-16T12:42:31;26.93;;;14.47;;
19758;SDS011;10038;42.662;23.278;2023-01-16T12:45:22;25.00;;;13.63;;
19758;SDS011;10038;42.662;23.278;2023-01-16T12:47:53;25.90;;;13.90;;
19758;SDS011;10038;42.662;23.278;2023-01-16T12:50:23;25.20;;;14.73;;
19758;SDS011;10038;42.662;23.278;2023-01-16T12:52:59;28.43;;;16.57;;
19758;SDS011;10038;42.662;23.278;2023-01-16T12:55:32;33.80;;;16.83;;
19758;SDS011;10038;42.662;23.278;2023-01-16T12:58:06;29.23;;;15.73;;
19758;SDS011;10038;42.662;23.278;2023-01-16T13:00:37;30.73;;;15.90;;
19758;SDS011;10038;42.662;23.278;2023-01-16T13:03:09;32.13;;;15.50;;
19758;SDS011;10038;42.662;23.278;2023-01-16T13:05:38;23.53;;;14.57;;
19758;SDS011;10038;42.662;23.278;2023-01-16T13:08:07;34.40;;;16.70;;
19758;SDS011;10038;42.662;23.278;2023-01-16T13:10:38;28.77;;;14.87;;
19758;SDS011;10038;42.662;23.278;2023-01-16T13:13:26;26.30;;;13.70;;
19758;SDS011;10038;42.662;23.278;2023-01-16T13:15:57;23.73;;;12.90;;
19758;SDS011;10038;42.662;23.278;2023-01-16T13:18:25;25.67;;;14.70;;
19758;SDS011;10038;42.662;23.278;2023-01-16T13:20:54;31.20;;;15.60;;
19758;SDS011;10038;42.662;23.278;2023-01-16T13:23:22;24.60;;;12.50;;
19758;SDS011;10038;42.662;23.278;2023-01-16T13:25:50;27.90;;;13.70;;
19758;SDS011;10038;42.662;23.278;2023-01-16T13:28:23;30.40;;;13.40;;
19758;SDS011;10038;42.662;23.278;2023-01-16T13:30:52;26.97;;;14.83;;
19758;SDS011;10038;42.662;23.278;2023-01-16T13:33:20;28.70;;;13.87;;
19758;SDS011;10038;42.662;23.278;2023-01-16T13:35:50;26.23;;;13.90;;
19758;SDS011;10038;42.662;23.278;2023-01-16T13:38:35;24.53;;;12.23;;
19758;SDS011;10038;42.662;23.278;2023-01-16T13:41:14;36.07;;;16.83;;
19758;SDS011;10038;42.662;23.278;2023-01-16T13:43:43;25.17;;;13.97;;
19758;SDS011;10038;42.662;23.278;2023-01-16T13:46:30;27.67;;;14.93;;
19758;SDS011;10038;42.662;23.278;2023-01-16T13:48:58;25.17;;;13.60;;
19758;SDS011;10038;42.662;23.278;2023-01-16T13:51:25;31.20;;;13.93;;
19758;SDS011;10038;42.662;23.278;2023-01-16T13:53:52;27.13;;;14.30;;
19758;SDS011;10038;42.662;23.278;2023-01-16T13:56:22;42.10;;;16.73;;
19758;SDS011;10038;42.662;23.278;2023-01-16T13:58:53;26.47;;;12.63;;
19758;SDS011;10038;42.662;23.278;2023-01-16T14:01:31;24.90;;;12.90;;
19758;SDS011;10038;42.662;23.278;2023-01-16T14:04:24;26.27;;;13.70;;
19758;SDS011;10038;42.662;23.278;2023-01-16T14:06:51;31.90;;;13.80;;
19758;SDS011;10038;42.662;23.278;2023-01-16T14:12:22;26.47;;;13.10;;
19758;SDS011;10038;42.662;23.278;2023-01-16T14:15:08;25.20;;;12.00;;
19758;SDS011;10038;42.662;23.278;2023-01-16T14:18:01;20.93;;;11.77;;
19758;SDS011;10038;42.662;23.278;2023-01-16T14:20:35;19.23;;;10.73;;
19758;SDS011;10038;42.662;23.278;2023-01-16T14:23:02;20.23;;;10.70;;
19758;SDS011;10038;42.662;23.278;2023-01-16T14:25:49;21.73;;;10.90;;
19758;SDS011;10038;42.662;23.278;2023-01-16T14:28:16;22.83;;;11.10;;
19758;SDS011;10038;42.662;23.278;2023-01-16T14:30:43;22.50;;;11.63;;
19758;SDS011;10038;42.662;23.278;2023-01-16T14:33:14;19.20;;;10.90;;
19758;SDS011;10038;42.662;23.278;2023-01-16T14:35:43;21.20;;;10.57;;